Time;durP1;ratioP1;P1;durP2;ratioP2;P2;SDS_P1;SDS_P2;PMS_P1;PMS_P2;Temp;Humidity;BMP_temperature;BMP_pressure;BME280_temperature;BME280_humidity;BME280_pressure;Samples;Min_cycle;Max_cycle;Signal;HPM_P1;HPM_P2
2022/08/12 00:44:31;;;;;;;4.65;3.60;;;;;;;19.70;61.64;101611.19;5068275;28;20043;-42
2022/08/12 00:47:00;;;;;;;6.93;3.47;;;;;;;19.67;61.84;101600.72;5068756;28;20048;-49
2022/08/12 00:49:29;;;;;;;8.95;4.90;;;;;;;19.64;62.10;101609.97;5068717;28;20055;-49
2022/08/12 00:52:05;;;;;;;8.95;4.00;;;;;;;19.64;62.23;101604.34;5068634;28;20045;-44
2022/08/12 00:54:35;;;;;;;6.85;3.47;;;;;;;19.60;62.09;101594.25;5068695;28;20059;-43
2022/08/12 00:57:09;;;;;;;8.52;4.10;;;;;;;19.57;62.48;101604.25;5068845;28;20049;-42
2022/08/12 00:59:46;;;;;;;4.38;3.92;;;;;;;19.53;62.62;101592.19;5069271;28;20037;-46
2022/08/12 01:02:23;;;;;;;7.57;3.80;;;;;;;19.50;62.88;101592.94;5050323;28;20506;-46
2022/08/12 01:13:33;;;;;;;8.68;3.75;;;;;;;19.39;63.08;101586.41;5068556;28;20052;-42
2022/08/12 01:16:02;;;;;;;6.95;3.28;;;;;;;19.34;63.08;101589.53;5068282;28;20056;-41
2022/08/12 01:18:32;;;;;;;7.10;3.70;;;;;;;19.32;63.30;101577.88;5068809;28;20417;-43
2022/08/12 01:21:07;;;;;;;5.45;3.85;;;;;;;19.27;63.65;101576.19;5068358;28;20115;-42
2022/08/12 01:24:16;;;;;;;6.75;3.45;;;;;;;19.24;63.74;101573.38;5068156;28;20564;-44
2022/08/12 01:26:58;;;;;;;6.65;3.88;;;;;;;19.20;63.34;101573.31;5067462;28;20051;-44
2022/08/12 01:29:30;;;;;;;8.57;4.13;;;;;;;19.15;63.79;101567.25;5068215;28;20128;-42
2022/08/12 01:32:04;;;;;;;12.88;5.82;;;;;;;19.10;64.05;101570.41;5068347;28;20431;-44
2022/08/12 01:34:35;;;;;;;6.50;3.35;;;;;;;19.06;64.01;101570.34;5068549;28;20045;-44
2022/08/12 01:37:06;;;;;;;8.00;3.83;;;;;;;19.08;64.13;101573.59;5068132;28;20494;-42
2022/08/12 01:39:42;;;;;;;6.88;3.35;;;;;;;19.07;64.09;101568.34;5068125;28;20045;-41
2022/08/12 01:42:40;;;;;;;4.72;3.08;;;;;;;19.02;64.05;101566.69;5058556;28;20547;-44
2022/08/12 01:45:08;;;;;;;11.73;4.28;;;;;;;18.99;64.03;101564.66;5068035;28;20055;-42
2022/08/12 01:47:59;;;;;;;7.10;3.38;;;;;;;18.95;64.30;101563.00;5068125;28;20116;-44
2022/08/12 01:50:54;;;;;;;5.53;2.85;;;;;;;18.93;64.26;101568.19;5070238;28;20559;-44
2022/08/12 01:53:41;;;;;;;6.88;3.05;;;;;;;18.87;64.30;101564.09;5057197;28;20040;-41
2022/08/12 01:56:20;;;;;;;3.70;2.97;;;;;;;18.82;64.18;101568.84;5070776;28;20135;-48
2022/08/12 02:01:38;;;;;;;6.38;3.05;;;;;;;18.73;64.54;101570.34;5071071;28;20563;-42
2022/08/12 02:13:49;;;;;;;3.28;2.40;;;;;;;18.58;64.97;101569.34;5071305;28;20506;-41
2022/08/12 02:16:45;;;;;;;7.68;2.80;;;;;;;18.55;65.09;101572.09;5070857;28;20089;-43
2022/08/12 02:19:46;;;;;;;3.97;3.03;;;;;;;18.50;65.21;101566.81;5071262;28;20127;-45
2022/08/12 02:22:28;;;;;;;5.07;3.17;;;;;;;18.51;65.10;101565.59;5071473;28;20045;-40
2022/08/12 02:25:02;;;;;;;6.28;3.45;;;;;;;18.50;65.15;101567.63;5074637;28;20043;-43
2022/08/12 02:27:38;;;;;;;4.20;2.55;;;;;;;18.44;65.33;101563.50;5070841;28;20052;-41
2022/08/12 02:30:18;;;;;;;5.88;2.65;;;;;;;18.42;65.66;101565.88;5070931;28;20161;-42
2022/08/12 02:32:48;;;;;;;8.52;2.88;;;;;;;18.41;65.56;101558.66;5070948;28;20053;-41
2022/08/12 02:35:21;;;;;;;4.40;2.65;;;;;;;18.40;65.53;101556.22;5070613;28;20052;-45
2022/08/12 02:37:54;;;;;;;5.93;2.58;;;;;;;18.37;65.61;101557.81;5070513;28;20558;-46
2022/08/12 02:40:23;;;;;;;4.18;2.40;;;;;;;18.37;65.50;101556.97;5070908;28;20541;-46
2022/08/12 02:43:12;;;;;;;5.45;2.90;;;;;;;18.37;65.64;101552.19;5074361;28;20052;-40
2022/08/12 02:45:55;;;;;;;6.03;3.83;;;;;;;18.37;65.72;101556.97;5048179;28;20065;-44
2022/08/12 02:48:32;;;;;;;4.43;2.30;;;;;;;18.36;65.57;101556.16;5067490;28;20555;-44
2022/08/12 02:51:08;;;;;;;6.38;2.63;;;;;;;18.32;65.93;101552.50;5057346;28;20056;-46
2022/08/12 02:53:38;;;;;;;4.95;2.97;;;;;;;18.27;65.94;101550.84;5070705;28;20048;-42
2022/08/12 02:56:06;;;;;;;6.03;2.83;;;;;;;18.27;66.03;101544.41;5057193;28;20047;-43
2022/08/12 02:58:34;;;;;;;6.90;2.97;;;;;;;18.23;66.11;101544.38;5070999;28;20146;-45
2022/08/12 03:01:11;;;;;;;7.65;2.78;;;;;;;18.22;66.13;101544.75;5150235;22;20061;-42
2022/08/12 03:03:40;;;;;;;4.32;2.67;;;;;;;18.19;66.23;101529.47;5070534;28;20049;-42
2022/08/12 03:06:16;;;;;;;5.95;2.60;;;;;;;18.14;66.46;101532.63;5069511;28;20569;-41
2022/08/12 03:08:45;;;;;;;5.43;2.90;;;;;;;18.14;66.53;101543.00;5070447;28;20122;-43
2022/08/12 03:11:35;;;;;;;5.78;2.78;;;;;;;18.10;66.63;101530.94;5070176;28;20494;-43
2022/08/12 03:14:13;;;;;;;6.10;2.67;;;;;;;18.07;66.67;101531.69;5070184;28;20044;-43
2022/08/12 03:16:43;;;;;;;5.45;2.90;;;;;;;18.05;66.81;101534.09;5070757;28;20071;-44
2022/08/12 03:19:10;;;;;;;4.20;2.88;;;;;;;18.02;66.75;101530.03;5070410;28;20079;-42
2022/08/12 03:21:37;;;;;;;4.22;2.63;;;;;;;17.99;66.85;101532.78;5069875;28;20123;-42
2022/08/12 03:24:26;;;;;;;2.75;2.55;;;;;;;17.97;66.83;101527.56;5069524;28;20044;-41
2022/08/12 03:26:55;;;;;;;4.07;2.88;;;;;;;17.95;66.95;101526.31;5070141;28;20052;-43
2022/08/12 03:29:29;;;;;;;6.15;3.15;;;;;;;17.92;67.15;101527.06;5069515;28;20036;-44
2022/08/12 03:32:01;;;;;;;5.35;2.95;;;;;;;17.90;67.16;101521.00;5069797;28;20475;-41
2022/08/12 03:34:34;;;;;;;7.88;3.25;;;;;;;17.84;67.18;101517.75;5070146;28;20047;-45
2022/08/12 03:37:02;;;;;;;7.22;2.72;;;;;;;17.82;67.41;101522.91;5069711;28;20450;-45
2022/08/12 03:42:13;;;;;;;5.95;2.85;;;;;;;17.72;67.77;101520.72;5069236;28;20299;-44
2022/08/12 04:01:56;;;;;;;7.32;2.70;;;;;;;17.54;67.75;101503.66;5069129;28;20060;-43
2022/08/12 04:04:32;;;;;;;5.97;2.65;;;;;;;17.54;67.76;101498.03;5068835;28;20044;-44
2022/08/12 04:07:08;;;;;;;4.13;2.47;;;;;;;17.51;67.68;101495.94;5051893;28;20047;-42
2022/08/12 04:09:41;;;;;;;2.83;2.30;;;;;;;17.48;67.71;101499.50;5069254;28;20045;-42
2022/08/12 04:14:59;;;;;;;6.70;2.42;;;;;;;17.41;68.05;101506.97;5057554;28;20075;-47
2022/08/12 04:17:27;;;;;;;4.70;2.75;;;;;;;17.42;67.96;101503.78;5068621;28;20520;-50
2022/08/12 04:19:57;;;;;;;8.43;3.20;;;;;;;17.42;68.32;101500.97;5069299;28;20063;-48
2022/08/12 04:22:29;;;;;;;7.28;2.40;;;;;;;17.39;68.27;101501.75;5069324;28;20131;-44
2022/08/12 04:24:59;;;;;;;6.35;3.00;;;;;;;17.37;68.43;101503.28;5064568;28;20048;-44
2022/08/12 04:27:28;;;;;;;5.45;2.75;;;;;;;17.35;68.42;101494.47;5069219;28;20036;-46
2022/08/12 04:29:57;;;;;;;5.28;3.03;;;;;;;17.34;68.54;101492.84;5069128;28;20379;-43
2022/08/12 04:32:46;;;;;;;5.35;2.63;;;;;;;17.29;68.66;101487.56;5068699;28;20132;-42
2022/08/12 04:35:15;;;;;;;5.68;2.25;;;;;;;17.26;68.75;101496.72;5051473;28;20044;-47
2022/08/12 04:37:45;;;;;;;4.70;2.65;;;;;;;17.26;68.80;101494.69;5069273;28;20044;-47
2022/08/12 04:40:30;;;;;;;6.38;2.80;;;;;;;17.20;68.89;101490.59;5070789;28;20087;-42
2022/08/12 04:42:59;;;;;;;7.03;2.67;;;;;;;17.17;68.81;101494.16;5074153;28;20073;-44
2022/08/12 04:45:30;;;;;;;3.92;2.47;;;;;;;17.17;68.95;101487.72;5068560;28;20105;-45
2022/08/12 04:47:57;;;;;;;5.85;2.67;;;;;;;17.16;68.91;101492.50;5068774;28;20044;-42
2022/08/12 04:50:24;;;;;;;4.65;2.50;;;;;;;17.14;69.17;101494.06;5068165;28;20549;-45
2022/08/12 04:53:06;;;;;;;13.85;3.13;;;;;;;17.13;69.12;101493.25;5068743;28;20396;-42
2022/08/12 04:55:37;;;;;;;7.38;2.90;;;;;;;17.14;69.35;101492.09;5068495;28;20151;-44
2022/08/12 04:58:07;;;;;;;5.47;3.20;;;;;;;17.14;69.55;101488.47;5069394;28;20052;-42
2022/08/12 05:00:35;;;;;;;6.10;2.90;;;;;;;17.12;69.32;101485.25;5050881;28;20048;-42
2022/08/12 05:03:04;;;;;;;5.68;2.45;;;;;;;17.07;69.47;101489.16;5068703;28;20045;-44
2022/08/12 05:05:33;;;;;;;8.70;2.65;;;;;;;17.05;69.58;101483.91;5068234;28;20056;-42
2022/08/12 05:08:03;;;;;;;4.60;2.45;;;;;;;17.07;69.61;101488.34;5051089;28;20076;-43
2022/08/12 05:10:30;;;;;;;11.55;2.92;;;;;;;17.09;69.61;101498.00;5068215;28;20040;-44
2022/08/12 05:13:06;;;;;;;4.40;2.90;;;;;;;17.04;69.60;101489.91;5068405;28;20053;-43
2022/08/12 05:15:33;;;;;;;5.53;3.22;;;;;;;17.02;69.71;101486.69;5069062;28;20048;-43
2022/08/12 05:18:02;;;;;;;5.35;3.03;;;;;;;16.99;69.82;101487.41;5068611;28;20072;-47
2022/08/12 05:20:47;;;;;;;4.10;3.00;;;;;;;16.97;69.98;101489.78;5068693;28;20051;-43
2022/08/12 05:23:16;;;;;;;4.38;2.72;;;;;;;16.96;70.11;101482.56;5068105;28;20079;-43
2022/08/12 05:25:44;;;;;;;4.93;3.22;;;;;;;17.03;69.59;101489.09;5068237;28;20050;-48
2022/08/12 05:28:13;;;;;;;8.20;2.70;;;;;;;17.10;69.46;101488.44;5050317;28;20045;-43
2022/08/12 05:30:41;;;;;;;8.00;3.15;;;;;;;17.05;69.68;101489.50;5070647;28;20049;-41
2022/08/12 05:33:09;;;;;;;6.55;2.90;;;;;;;17.04;70.00;101489.91;5072533;28;20110;-44
2022/08/12 05:35:39;;;;;;;4.63;2.90;;;;;;;17.01;70.08;101485.84;5072334;28;20390;-43
2022/08/12 05:40:54;;;;;;;5.15;2.67;;;;;;;17.03;70.19;101488.28;5071784;28;20505;-43
2022/08/12 05:43:23;;;;;;;9.98;2.80;;;;;;;17.03;70.46;101493.88;5071530;28;20056;-42
2022/08/12 05:45:50;;;;;;;3.95;3.20;;;;;;;17.03;70.66;101493.88;5071484;28;20131;-46
2022/08/12 05:48:17;;;;;;;5.05;2.47;;;;;;;17.07;70.85;101494.75;5072018;28;20524;-42
2022/08/12 05:50:45;;;;;;;5.88;2.33;;;;;;;17.11;70.77;101492.81;5071356;28;20512;-43
2022/08/12 05:53:12;;;;;;;5.47;2.60;;;;;;;17.13;70.65;101498.84;5071426;28;20623;-42
2022/08/12 05:55:39;;;;;;;10.45;3.85;;;;;;;17.19;70.83;101494.56;5071409;28;20044;-43
2022/08/12 05:58:06;;;;;;;6.55;2.95;;;;;;;17.25;70.79;101501.50;5071856;28;20409;-41
2022/08/12 06:00:34;;;;;;;2.70;2.47;;;;;;;17.28;71.04;101495.16;5071083;28;20520;-45
2022/08/12 06:03:03;;;;;;;7.30;2.95;;;;;;;17.34;71.00;101492.84;5071377;28;20498;-45
2022/08/12 06:05:36;;;;;;;5.05;2.65;;;;;;;17.40;70.96;101486.56;5072240;28;20040;-43
2022/08/12 06:08:20;;;;;;;4.95;2.90;;;;;;;17.47;70.80;101491.50;5071440;28;20048;-45
2022/08/12 06:10:48;;;;;;;10.02;3.33;;;;;;;17.51;70.65;101493.16;5071140;28;20650;-41
2022/08/12 06:13:17;;;;;;;8.38;3.25;;;;;;;17.57;70.92;101490.88;5071216;28;20420;-48
2022/08/12 06:16:08;;;;;;;4.75;2.47;;;;;;;17.63;70.73;101484.56;5071097;28;20051;-45
2022/08/12 06:18:39;;;;;;;5.05;2.40;;;;;;;17.69;70.51;101487.06;5053545;28;20059;-42
2022/08/12 06:21:12;;;;;;;9.90;2.22;;;;;;;17.74;70.44;101490.34;5071253;28;20072;-43
2022/08/12 06:23:39;;;;;;;7.95;3.28;;;;;;;17.80;70.54;101483.25;5071708;28;20068;-49
2022/08/12 06:26:10;;;;;;;5.07;2.50;;;;;;;17.84;70.54;101488.94;5071117;28;20406;-41
2022/08/12 06:28:44;;;;;;;7.28;2.70;;;;;;;17.87;70.60;101476.97;5070936;28;20041;-43
2022/08/12 06:31:15;;;;;;;5.43;2.55;;;;;;;17.89;70.58;101478.22;5070762;28;20508;-41
2022/08/12 06:34:01;;;;;;;7.20;3.38;;;;;;;17.95;70.54;101478.69;5070987;28;20063;-43
2022/08/12 06:36:48;;;;;;;13.90;3.38;;;;;;;18.00;70.35;101481.94;5070701;28;20056;-42
2022/08/12 06:39:16;;;;;;;10.75;2.30;;;;;;;18.05;70.54;101484.47;5071012;28;20048;-41
2022/08/12 06:44:49;;;;;;;4.45;2.53;;;;;;;18.15;70.30;101477.38;5070822;28;20436;-46
2022/08/12 06:47:18;;;;;;;5.68;2.78;;;;;;;18.20;70.30;101491.06;5070453;28;20537;-44
2022/08/12 06:49:45;;;;;;;8.20;3.13;;;;;;;18.23;70.40;101490.31;5070713;28;20051;-43
2022/08/12 06:52:11;;;;;;;4.18;2.22;;;;;;;18.26;70.37;101483.94;5070489;28;20049;-42
2022/08/12 06:54:41;;;;;;;3.78;2.42;;;;;;;18.31;70.36;101496.81;5070803;28;20055;-41
2022/08/12 06:57:08;;;;;;;4.32;2.28;;;;;;;18.35;70.06;101484.44;5071497;28;20072;-43
2022/08/12 06:59:55;;;;;;;6.03;2.88;;;;;;;18.40;69.83;101489.72;5070753;28;20082;-42
2022/08/12 07:02:22;;;;;;;9.55;3.00;;;;;;;18.41;70.05;101485.75;5070138;28;20516;-42
2022/08/12 07:04:48;;;;;;;5.57;2.47;;;;;;;18.45;69.85;101475.41;5070463;28;20059;-44
2022/08/12 07:07:17;;;;;;;2.20;1.83;;;;;;;18.52;69.74;101489.53;5070230;28;20528;-44
2022/08/12 07:09:45;;;;;;;3.90;2.83;;;;;;;18.57;69.59;101480.78;5070197;28;20065;-44
2022/08/12 07:12:32;;;;;;;4.10;2.25;;;;;;;18.63;69.34;101482.06;5070053;28;20509;-41
2022/08/12 07:15:00;;;;;;;8.43;2.08;;;;;;;18.68;69.56;101484.53;5070482;28;20156;-44
2022/08/12 07:17:34;;;;;;;3.40;2.10;;;;;;;18.73;69.14;101487.00;5070168;28;20441;-46
2022/08/12 07:20:08;;;;;;;3.35;2.53;;;;;;;18.77;68.73;101493.44;5070496;28;20094;-42
2022/08/12 07:22:56;;;;;;;6.78;2.20;;;;;;;18.82;68.65;101493.09;5069993;28;20112;-41
2022/08/12 07:25:33;;;;;;;6.93;2.50;;;;;;;18.89;68.49;101494.38;5070196;28;20057;-48
2022/08/12 07:28:07;;;;;;;6.78;2.03;;;;;;;18.93;68.37;101495.25;5070141;28;20051;-48
2022/08/12 07:30:44;;;;;;;5.05;1.92;;;;;;;18.98;68.31;101486.47;5070569;28;20128;-51
2022/08/12 07:33:12;;;;;;;3.80;2.30;;;;;;;19.05;68.16;101492.16;5069866;28;20052;-40
2022/08/12 07:35:46;;;;;;;6.20;2.35;;;;;;;19.11;68.05;101499.03;5070295;28;20088;-47
2022/08/12 07:38:29;;;;;;;4.60;2.40;;;;;;;19.21;68.10;101487.09;5069958;28;20048;-45
2022/08/12 07:41:06;;;;;;;6.65;2.28;;;;;;;19.28;68.05;101492.78;5069862;28;20102;-42
2022/08/12 07:43:35;;;;;;;7.82;2.30;;;;;;;19.35;67.78;101496.47;5069781;28;20120;-42
2022/08/12 07:46:07;;;;;;;7.22;2.58;;;;;;;19.44;67.83;101493.38;5052730;28;20055;-45
2022/08/12 07:48:39;;;;;;;6.40;2.45;;;;;;;19.52;67.84;101499.84;5070172;28;20063;-43
2022/08/12 07:51:07;;;;;;;4.55;2.00;;;;;;;19.59;67.63;101495.09;5070123;28;20084;-42
2022/08/12 07:53:37;;;;;;;12.05;2.67;;;;;;;19.67;67.77;101507.22;5069054;28;20553;-44
2022/08/12 07:56:23;;;;;;;8.75;2.13;;;;;;;19.75;68.27;101497.66;5069061;28;20124;-44
2022/08/12 07:58:50;;;;;;;6.78;2.22;;;;;;;19.87;68.37;101497.34;5069193;28;20071;-42
2022/08/12 08:01:20;;;;;;;6.80;2.03;;;;;;;19.98;68.41;101499.06;5068926;28;20409;-44
2022/08/12 08:06:44;;;;;;;3.45;1.50;;;;;;;20.21;69.12;101492.34;5060404;28;20124;-42
2022/08/12 08:09:13;;;;;;;3.55;1.90;;;;;;;20.38;68.81;101498.13;5069731;28;20072;-45
2022/08/12 08:14:28;;;;;;;4.35;1.55;;;;;;;20.77;68.31;101492.66;5069693;28;20036;-44
2022/08/12 08:16:57;;;;;;;7.50;2.40;;;;;;;21.02;67.47;101482.28;5069376;28;20068;-45
2022/08/12 08:19:25;;;;;;;8.65;2.13;;;;;;;21.35;66.01;101500.88;5051262;28;20058;-43
2022/08/12 08:21:53;;;;;;;3.85;2.13;;;;;;;21.76;64.70;101493.66;5069739;28;20048;-48
2022/08/12 08:24:26;;;;;;;3.72;1.48;;;;;;;22.27;63.47;101495.22;5054582;28;20079;-44
2022/08/12 08:26:57;;;;;;;4.57;1.77;;;;;;;22.97;61.02;101483.69;5068994;28;20048;-44
2022/08/12 08:29:24;;;;;;;4.22;1.55;;;;;;;23.77;59.32;101485.56;5068777;28;20116;-44
2022/08/12 08:31:58;;;;;;;5.38;2.80;;;;;;;24.69;56.35;101482.56;5068857;28;20123;-47
2022/08/12 08:34:28;;;;;;;1.73;1.42;;;;;;;25.64;53.29;101489.69;5068573;28;20044;-43
2022/08/12 08:37:15;;;;;;;7.38;2.00;;;;;;;26.66;50.49;101487.00;5068358;28;20064;-45
2022/08/12 08:39:42;;;;;;;5.63;1.58;;;;;;;27.39;48.32;101489.41;5069231;28;20390;-48
2022/08/12 08:44:57;;;;;;;4.25;1.80;;;;;;;28.53;44.76;101487.28;5068849;28;20494;-43
2022/08/12 08:47:24;;;;;;;3.53;1.75;;;;;;;28.97;42.52;101489.22;5068560;28;20044;-43
2022/08/12 08:49:53;;;;;;;8.80;2.22;;;;;;;29.40;41.99;101486.66;5059014;28;20056;-43
2022/08/12 08:52:24;;;;;;;1.75;1.02;;;;;;;29.93;40.70;101484.09;5052111;28;20045;-43
2022/08/12 08:55:15;;;;;;;4.40;2.03;;;;;;;30.42;39.70;101478.69;5053255;28;20056;-45
2022/08/12 08:57:53;;;;;;;6.35;2.05;;;;;;;30.73;38.47;101477.47;5055465;28;20565;-47
2022/08/12 09:00:20;;;;;;;3.85;1.25;;;;;;;30.97;37.60;101474.94;5068502;28;20137;-47
2022/08/12 09:02:48;;;;;;;3.42;1.60;;;;;;;31.11;36.67;101471.50;5068437;28;20056;-48
2022/08/12 09:05:26;;;;;;;3.20;1.67;;;;;;;31.13;36.68;101476.78;5070328;28;20044;-41
2022/08/12 09:07:55;;;;;;;2.47;0.93;;;;;;;31.22;35.41;101468.22;5072640;28;20052;-47
2022/08/12 09:10:40;;;;;;;2.90;1.38;;;;;;;31.15;35.90;101475.03;5072602;28;20051;-43
2022/08/12 09:13:26;;;;;;;5.60;1.35;;;;;;;31.38;35.61;101467.97;5073504;28;20036;-42
2022/08/12 09:16:13;;;;;;;3.90;1.25;;;;;;;31.78;35.02;101470.78;5072211;28;20047;-45
2022/08/12 09:18:42;;;;;;;1.50;1.13;;;;;;;31.92;34.28;101471.00;5072458;28;20087;-43
2022/08/12 09:21:10;;;;;;;1.23;0.88;;;;;;;32.02;33.24;101468.16;5072628;28;20037;-45
2022/08/12 09:23:37;;;;;;;1.58;0.90;;;;;;;32.07;33.23;101464.66;5071927;28;20048;-43
2022/08/12 09:26:24;;;;;;;5.18;1.30;;;;;;;32.19;32.41;101473.13;5072085;28;20040;-42
2022/08/12 09:29:12;;;;;;;1.00;0.90;;;;;;;32.36;31.92;101473.56;5072247;28;20044;-42
2022/08/12 09:31:41;;;;;;;4.93;1.67;;;;;;;32.53;31.37;101474.06;5072041;28;20158;-45
2022/08/12 09:34:28;;;;;;;3.25;0.98;;;;;;;32.70;31.06;101464.63;5071875;28;20048;-42
2022/08/12 09:37:01;;;;;;;4.00;1.05;;;;;;;32.53;31.14;101451.94;5072261;28;20045;-44
2022/08/12 09:39:48;;;;;;;2.83;0.93;;;;;;;32.55;31.40;101455.09;5071890;28;20050;-43
2022/08/12 09:45:44;;;;;;;2.03;1.52;;;;;;;32.67;31.28;101451.28;5071765;28;20051;-42
2022/08/12 09:48:32;;;;;;;1.63;1.05;;;;;;;32.76;30.74;101451.25;5072039;28;20047;-45
2022/08/12 09:51:03;;;;;;;2.33;1.17;;;;;;;32.87;30.25;101447.88;5071745;28;20048;-49
2022/08/12 09:53:49;;;;;;;3.13;1.15;;;;;;;32.92;29.86;101458.69;5056476;28;20076;-42
2022/08/12 09:56:35;;;;;;;4.05;1.33;;;;;;;32.88;29.63;101450.25;5071613;28;20143;-43
2022/08/12 09:59:22;;;;;;;2.33;0.90;;;;;;;32.76;29.80;101453.31;5071219;28;20056;-42
2022/08/12 10:02:11;;;;;;;5.50;1.13;;;;;;;32.81;30.22;101452.66;5053230;28;20062;-43
2022/08/12 10:04:58;;;;;;;3.67;1.48;;;;;;;32.99;29.79;101456.25;5072028;28;20040;-43
2022/08/12 10:07:25;;;;;;;2.53;0.90;;;;;;;33.04;28.96;101458.50;5071127;28;20094;-44
2022/08/12 10:10:06;;;;;;;2.78;0.88;;;;;;;33.11;28.87;101448.75;5071578;28;20041;-42
2022/08/12 10:15:43;;;;;;;2.25;1.00;;;;;;;33.02;29.03;101448.75;5070614;28;20056;-48
2022/08/12 10:18:31;;;;;;;1.88;1.00;;;;;;;33.02;28.89;101446.69;5071258;28;20044;-47
2022/08/12 10:21:03;;;;;;;;;;;;;;;32.94;29.62;101436.84;5071812;28;20114;-46
2022/08/12 10:23:30;;;;;;;2.47;0.90;;;;;;;33.04;28.73;101441.28;5068296;28;20019;-45
2022/08/12 10:32:22;;;;;;;2.15;0.70;;;;;;;32.36;27.94;101424.84;5061595;28;20421;-42
2022/08/12 10:35:09;;;;;;;4.07;1.40;;;;;;;32.00;28.64;101430.59;5070836;28;20037;-45
2022/08/12 10:37:37;;;;;;;4.15;0.93;;;;;;;31.98;28.75;101433.13;5071933;28;20053;-49
2022/08/12 10:40:24;;;;;;;3.63;1.02;;;;;;;31.67;29.10;101425.44;5070699;28;20040;-50
2022/08/12 10:45:45;;;;;;;4.28;1.63;;;;;;;31.28;30.34;101429.13;5071170;28;20056;-46
2022/08/12 10:48:12;;;;;;;2.55;0.93;;;;;;;31.21;30.47;101424.53;5071056;28;20540;-43
2022/08/12 10:50:54;;;;;;;3.97;1.10;;;;;;;31.16;30.60;101427.19;5070727;28;20047;-47
2022/08/12 10:53:33;;;;;;;1.67;0.90;;;;;;;31.00;31.27;101416.81;5071210;28;20086;-45
2022/08/12 10:56:14;;;;;;;2.08;1.17;;;;;;;30.66;31.53;101411.97;5071716;28;20106;-44
2022/08/12 10:58:42;;;;;;;2.15;0.93;;;;;;;30.20;32.35;101412.94;5070717;28;20147;-43
2022/08/12 11:01:14;;;;;;;;;;;;;;;29.64;32.79;101412.06;5071132;28;20506;-43
2022/08/12 11:04:02;;;;;;;1.92;0.82;;;;;;;29.16;33.85;101411.22;5052108;28;20358;-43
2022/08/12 11:06:52;;;;;;;3.03;1.00;;;;;;;28.88;34.72;101406.44;5070795;28;20047;-48
2022/08/12 11:09:40;;;;;;;3.45;0.85;;;;;;;28.61;35.09;101408.88;5056607;28;20524;-44
2022/08/12 11:12:28;;;;;;;2.15;1.00;;;;;;;28.22;35.81;101401.50;5071043;28;20102;-42
2022/08/12 11:15:16;;;;;;;2.20;0.90;;;;;;;27.86;36.05;101404.50;5070269;28;20154;-47
2022/08/12 11:17:50;;;;;;;4.32;1.52;;;;;;;27.65;36.50;101402.22;5070104;28;20132;-47
2022/08/12 11:20:23;;;;;;;5.30;0.90;;;;;;;27.52;36.78;101404.22;5070331;28;20398;-43
2022/08/12 11:23:03;;;;;;;1.42;0.75;;;;;;;27.24;37.18;101402.06;5069854;28;20529;-43
2022/08/12 11:25:50;;;;;;;5.43;1.30;;;;;;;26.99;37.83;101397.78;5063968;28;20055;-48
2022/08/12 11:28:24;;;;;;;3.58;1.10;;;;;;;26.88;38.57;101399.25;5070521;28;20040;-43
2022/08/12 11:31:04;;;;;;;3.42;0.95;;;;;;;26.64;38.91;101395.72;5070942;28;20068;-45
2022/08/12 11:33:31;;;;;;;3.83;1.25;;;;;;;26.40;39.05;101399.88;5070502;28;20115;-46
2022/08/12 11:36:19;;;;;;;1.77;1.10;;;;;;;26.21;38.93;101392.22;5070328;28;20398;-45
2022/08/12 11:38:49;;;;;;;2.65;1.08;;;;;;;26.07;39.58;101392.44;5070349;28;20503;-43
2022/08/12 11:41:18;;;;;;;1.95;0.88;;;;;;;25.95;38.99;101391.06;5069714;28;20056;-41
2022/08/12 11:44:00;;;;;;;1.55;0.90;;;;;;;25.86;38.96;101390.84;5070388;28;20055;-43
2022/08/12 11:46:48;;;;;;;1.27;0.90;;;;;;;25.81;39.17;101392.16;5070548;28;20040;-44
2022/08/12 11:49:22;;;;;;;1.90;0.90;;;;;;;25.74;39.86;101388.63;5068512;28;20119;-46
2022/08/12 11:52:02;;;;;;;1.23;0.82;;;;;;;25.72;39.73;101389.06;5064425;28;20445;-46
2022/08/12 11:54:30;;;;;;;8.27;1.15;;;;;;;25.55;40.36;101392.25;5051464;28;20440;-43
2022/08/12 11:56:58;;;;;;;2.42;0.80;;;;;;;25.50;40.62;101393.50;5051609;28;20106;-49
2022/08/12 11:59:30;;;;;;;4.47;1.00;;;;;;;25.51;40.56;101389.47;5069270;28;20036;-45
2022/08/12 12:02:17;;;;;;;1.88;1.30;;;;;;;25.47;40.96;101393.59;5069329;28;20560;-42
2022/08/12 12:04:47;;;;;;;1.77;1.15;;;;;;;25.49;41.34;101394.78;5069309;28;20056;-44
2022/08/12 12:07:17;;;;;;;1.30;1.17;;;;;;;25.47;41.47;101387.94;5069042;28;20119;-44
2022/08/12 12:09:44;;;;;;;2.55;0.90;;;;;;;25.54;41.92;101391.44;5069107;28;20449;-42
2022/08/12 12:12:21;;;;;;;2.38;1.02;;;;;;;25.60;41.05;101386.06;5069247;28;20147;-44
2022/08/12 12:14:50;;;;;;;2.53;1.30;;;;;;;25.56;40.80;101369.09;5069585;28;20593;-50
2022/08/12 12:17:23;;;;;;;7.43;0.95;;;;;;;25.54;40.59;101377.25;5069149;28;20044;-41
2022/08/12 12:19:51;;;;;;;5.53;1.27;;;;;;;25.59;40.64;101376.75;5069301;28;20040;-43
2022/08/12 12:22:20;;;;;;;1.65;0.88;;;;;;;25.67;40.41;101374.59;5068668;28;20068;-42
2022/08/12 12:24:53;;;;;;;2.80;1.02;;;;;;;25.75;40.27;101368.34;5068710;28;20045;-43
2022/08/12 12:27:20;;;;;;;2.58;0.85;;;;;;;25.94;39.79;101370.41;5068906;28;20044;-44
2022/08/12 12:30:12;;;;;;;2.72;1.15;;;;;;;26.24;39.53;101368.63;5069083;28;20641;-42
2022/08/12 12:32:55;;;;;;;4.43;2.20;;;;;;;26.52;38.79;101362.31;5068757;28;20059;-44
2022/08/12 12:35:22;;;;;;;2.15;1.10;;;;;;;26.70;38.66;101362.72;5068643;28;20131;-44
2022/08/12 12:38:10;;;;;;;1.50;0.90;;;;;;;26.87;38.33;101372.91;5040554;28;20052;-44
2022/08/12 12:40:41;;;;;;;6.05;1.40;;;;;;;26.88;38.93;101363.13;5068588;28;20143;-50
2022/08/12 12:43:10;;;;;;;2.75;1.10;;;;;;;26.94;38.24;101369.06;5068969;28;20051;-45
2022/08/12 12:45:39;;;;;;;1.60;1.10;;;;;;;26.94;38.15;101367.03;5068608;28;20041;-45
2022/08/12 12:48:12;;;;;;;0.80;0.80;;;;;;;26.94;37.75;101367.03;5068577;28;20118;-46
2022/08/12 12:50:42;;;;;;;1.02;0.88;;;;;;;26.94;37.96;101355.69;5068498;28;20071;-42
2022/08/12 12:53:20;;;;;;;1.90;1.10;;;;;;;27.06;38.16;101362.69;5069269;28;20048;-41
2022/08/12 12:56:19;;;;;;;1.05;0.80;;;;;;;27.26;38.14;101348.38;5068729;28;20041;-43
2022/08/12 12:59:01;;;;;;;1.10;0.90;;;;;;;27.41;37.44;101349.63;5068318;28;20105;-43
2022/08/12 13:01:28;;;;;;;1.58;1.00;;;;;;;27.54;37.61;101354.16;5068422;28;20045;-45
2022/08/12 13:03:58;;;;;;;2.70;0.93;;;;;;;27.60;37.53;101351.56;5068651;28;20284;-49
2022/08/12 13:06:29;;;;;;;1.05;1.00;;;;;;;27.63;36.39;101342.16;5068605;28;20040;-46
2022/08/12 13:09:01;;;;;;;3.72;1.20;;;;;;;27.64;37.08;101346.59;5068336;28;20424;-43
2022/08/12 13:11:32;;;;;;;3.90;0.95;;;;;;;27.62;36.75;101351.91;5069041;28;20044;-43
2022/08/12 13:14:12;;;;;;;6.13;1.00;;;;;;;27.68;37.16;101350.94;5068807;28;20044;-42
2022/08/12 13:16:59;;;;;;;1.05;0.93;;;;;;;27.67;36.67;101346.47;5050735;28;20102;-46
2022/08/12 13:19:35;;;;;;;4.10;1.33;;;;;;;27.67;36.97;101345.69;5068492;28;20051;-41
2022/08/12 13:22:16;;;;;;;4.32;1.27;;;;;;;27.76;36.66;101345.84;5068352;28;20136;-45
2022/08/12 13:24:51;;;;;;;8.23;1.33;;;;;;;27.76;36.89;101343.00;5068465;28;20040;-44
2022/08/12 13:27:33;;;;;;;3.70;1.17;;;;;;;27.76;37.20;101343.00;5068683;28;20502;-43
2022/08/12 13:30:04;;;;;;;2.13;0.85;;;;;;;27.76;36.43;101349.50;5068274;28;20393;-44
2022/08/12 13:32:37;;;;;;;1.25;0.88;;;;;;;27.91;36.69;101344.19;5068124;28;20041;-45
2022/08/12 13:35:05;;;;;;;1.70;0.90;;;;;;;28.04;36.08;101341.44;5068246;28;20037;-43
2022/08/12 13:37:54;;;;;;;2.30;0.93;;;;;;;28.22;36.33;101348.16;5067965;28;20037;-44
2022/08/12 13:40:27;;;;;;;3.22;1.70;;;;;;;28.45;35.91;101344.25;5067864;28;20068;-43
2022/08/12 13:42:57;;;;;;;6.53;1.35;;;;;;;28.49;36.11;101339.22;5068341;28;20053;-42
2022/08/12 13:45:25;;;;;;;4.07;1.20;;;;;;;28.50;36.06;101337.97;5068896;28;20076;-49
2022/08/12 13:48:01;;;;;;;2.60;1.30;;;;;;;28.46;35.90;101333.66;5068433;28;20083;-44
2022/08/12 13:50:39;;;;;;;2.83;1.60;;;;;;;28.60;36.23;101333.19;5068496;28;20054;-50
2022/08/12 13:53:15;;;;;;;3.30;1.48;;;;;;;28.62;36.40;101330.72;5072341;28;20102;-49
2022/08/12 13:56:02;;;;;;;3.60;1.63;;;;;;;28.87;36.26;101325.00;5072268;28;20498;-44